sensor_id;sensor_type;location;lat;lon;timestamp;P1;P2;P0
35654;PMS1003;21773;50.010;19.972;2023-06-14T00:02:12;24.25;21.00;17.25
35654;PMS1003;21773;50.010;19.972;2023-06-14T00:05:17;25.00;21.00;17.00
35654;PMS1003;21773;50.010;19.972;2023-06-14T00:08:20;24.00;22.40;18.00
35654;PMS1003;21773;50.010;19.972;2023-06-14T00:11:26;22.40;19.40;17.00
35654;PMS1003;21773;50.010;19.972;2023-06-14T00:14:29;20.50;19.00;16.00
35654;PMS1003;21773;50.010;19.972;2023-06-14T00:17:33;23.00;19.00;17.00
35654;PMS1003;21773;50.010;19.972;2023-06-14T00:20:39;21.60;20.00;17.00
35654;PMS1003;21773;50.010;19.972;2023-06-14T00:23:43;21.00;18.00;15.00
35654;PMS1003;21773;50.010;19.972;2023-06-14T00:26:47;18.60;17.00;15.00
35654;PMS1003;21773;50.010;19.972;2023-06-14T00:29:51;18.00;16.40;14.40
35654;PMS1003;21773;50.010;19.972;2023-06-14T00:32:54;22.00;20.00;17.00
35654;PMS1003;21773;50.010;19.972;2023-06-14T00:36:00;28.00;25.60;21.00
35654;PMS1003;21773;50.010;19.972;2023-06-14T00:39:04;26.80;24.20;20.00
35654;PMS1003;21773;50.010;19.972;2023-06-14T00:42:09;23.20;21.60;18.20
35654;PMS1003;21773;50.010;19.972;2023-06-14T00:45:12;21.00;20.00;17.00
35654;PMS1003;21773;50.010;19.972;2023-06-14T00:48:16;24.00;22.00;18.00
35654;PMS1003;21773;50.010;19.972;2023-06-14T00:51:21;24.60;23.60;20.00
35654;PMS1003;21773;50.010;19.972;2023-06-14T00:54:25;22.60;21.40;16.60
35654;PMS1003;21773;50.010;19.972;2023-06-14T00:57:28;24.25;20.75;17.00
35654;PMS1003;21773;50.010;19.972;2023-06-14T01:00:32;20.40;19.00;16.20
35654;PMS1003;21773;50.010;19.972;2023-06-14T01:03:36;21.00;17.40;15.00
35654;PMS1003;21773;50.010;19.972;2023-06-14T01:06:43;21.40;18.00;15.40
35654;PMS1003;21773;50.010;19.972;2023-06-14T01:09:58;18.25;16.00;12.75
35654;PMS1003;21773;50.010;19.972;2023-06-14T01:13:12;20.00;18.60;15.60
35654;PMS1003;21773;50.010;19.972;2023-06-14T01:16:21;17.80;16.00;13.80
35654;PMS1003;21773;50.010;19.972;2023-06-14T01:19:24;18.75;17.50;14.75
35654;PMS1003;21773;50.010;19.972;2023-06-14T01:22:31;16.80;14.80;12.00
35654;PMS1003;21773;50.010;19.972;2023-06-14T01:25:36;21.20;16.00;12.20
35654;PMS1003;21773;50.010;19.972;2023-06-14T01:28:40;18.00;16.80;14.00
35654;PMS1003;21773;50.010;19.972;2023-06-14T01:31:49;17.60;15.60;13.60
35654;PMS1003;21773;50.010;19.972;2023-06-14T01:34:53;16.00;14.60;11.80
35654;PMS1003;21773;50.010;19.972;2023-06-14T01:37:57;20.00;16.00;12.00
35654;PMS1003;21773;50.010;19.972;2023-06-14T01:41:05;18.60;16.60;13.00
35654;PMS1003;21773;50.010;19.972;2023-06-14T01:44:09;19.60;17.00;13.00
35654;PMS1003;21773;50.010;19.972;2023-06-14T01:47:13;19.00;16.60;14.00
35654;PMS1003;21773;50.010;19.972;2023-06-14T01:50:18;15.60;13.80;11.20
35654;PMS1003;21773;50.010;19.972;2023-06-14T01:53:23;16.00;15.40;13.00
35654;PMS1003;21773;50.010;19.972;2023-06-14T01:56:27;15.00;14.75;12.00
35654;PMS1003;21773;50.010;19.972;2023-06-14T01:59:30;19.33;17.00;14.00
35654;PMS1003;21773;50.010;19.972;2023-06-14T02:02:36;18.00;16.00;14.60
35654;PMS1003;21773;50.010;19.972;2023-06-14T02:05:40;15.00;15.00;13.00
35654;PMS1003;21773;50.010;19.972;2023-06-14T02:08:43;16.00;14.00;12.00
35654;PMS1003;21773;50.010;19.972;2023-06-14T02:11:48;18.00;15.40;13.00
35654;PMS1003;21773;50.010;19.972;2023-06-14T02:14:51;16.00;15.00;12.60
35654;PMS1003;21773;50.010;19.972;2023-06-14T02:17:57;15.40;14.40;12.40
35654;PMS1003;21773;50.010;19.972;2023-06-14T02:21:00;13.00;12.00;10.00
35654;PMS1003;21773;50.010;19.972;2023-06-14T02:24:04;15.67;15.00;13.00
35654;PMS1003;21773;50.010;19.972;2023-06-14T02:27:09;16.00;16.00;13.40
35654;PMS1003;21773;50.010;19.972;2023-06-14T02:30:13;14.50;13.00;11.00
35654;PMS1003;21773;50.010;19.972;2023-06-14T02:33:17;15.00;13.25;10.00
35654;PMS1003;21773;50.010;19.972;2023-06-14T02:36:21;16.50;14.50;12.50
35654;PMS1003;21773;50.010;19.972;2023-06-14T02:39:25;14.00;13.00;11.75
35654;PMS1003;21773;50.010;19.972;2023-06-14T02:42:30;15.50;14.00;12.00
35654;PMS1003;21773;50.010;19.972;2023-06-14T02:45:33;14.60;14.00;11.60
35654;PMS1003;21773;50.010;19.972;2023-06-14T02:48:36;15.00;13.00;11.00
35654;PMS1003;21773;50.010;19.972;2023-06-14T02:51:40;18.50;16.00;13.00
35654;PMS1003;21773;50.010;19.972;2023-06-14T02:54:43;20.00;17.75;13.75
35654;PMS1003;21773;50.010;19.972;2023-06-14T02:57:49;16.40;15.40;13.00
35654;PMS1003;21773;50.010;19.972;2023-06-14T03:00:52;22.00;19.40;16.00
35654;PMS1003;21773;50.010;19.972;2023-06-14T03:03:57;17.75;14.25;13.00
35654;PMS1003;21773;50.010;19.972;2023-06-14T03:07:00;18.60;16.00;13.60
35654;PMS1003;21773;50.010;19.972;2023-06-14T03:10:05;18.00;16.00;13.40
35654;PMS1003;21773;50.010;19.972;2023-06-14T03:13:10;20.00;16.50;14.50
35654;PMS1003;21773;50.010;19.972;2023-06-14T03:16:14;20.60;20.00;17.00
35654;PMS1003;21773;50.010;19.972;2023-06-14T03:19:19;20.80;18.80;16.20
35654;PMS1003;21773;50.010;19.972;2023-06-14T03:22:23;14.00;14.00;11.50
35654;PMS1003;21773;50.010;19.972;2023-06-14T03:25:27;18.25;16.25;14.00
35654;PMS1003;21773;50.010;19.972;2023-06-14T03:28:33;20.00;19.00;17.00
35654;PMS1003;21773;50.010;19.972;2023-06-14T03:31:39;18.40;17.40;13.40
35654;PMS1003;21773;50.010;19.972;2023-06-14T03:34:44;20.00;16.00;14.00
35654;PMS1003;21773;50.010;19.972;2023-06-14T03:37:53;20.40;19.00;15.60
35654;PMS1003;21773;50.010;19.972;2023-06-14T03:40:57;18.00;15.75;13.00
35654;PMS1003;21773;50.010;19.972;2023-06-14T03:44:02;20.00;16.50;14.00
35654;PMS1003;21773;50.010;19.972;2023-06-14T03:47:06;20.40;18.40;15.00
35654;PMS1003;21773;50.010;19.972;2023-06-14T03:50:10;18.25;17.25;14.25
35654;PMS1003;21773;50.010;19.972;2023-06-14T03:53:14;18.00;17.00;14.60
35654;PMS1003;21773;50.010;19.972;2023-06-14T03:56:22;17.40;15.00;12.00
35654;PMS1003;21773;50.010;19.972;2023-06-14T03:59:27;21.00;19.60;16.60
35654;PMS1003;21773;50.010;19.972;2023-06-14T04:02:31;19.00;16.60;14.00
35654;PMS1003;21773;50.010;19.972;2023-06-14T04:05:34;21.00;19.00;16.00
35654;PMS1003;21773;50.010;19.972;2023-06-14T04:08:40;22.00;19.00;16.00
35654;PMS1003;21773;50.010;19.972;2023-06-14T04:11:43;18.50;16.75;13.75
35654;PMS1003;21773;50.010;19.972;2023-06-14T04:14:48;20.40;17.00;14.80
35654;PMS1003;21773;50.010;19.972;2023-06-14T04:17:52;18.20;17.20;13.80
35654;PMS1003;21773;50.010;19.972;2023-06-14T04:20:59;21.00;17.40;14.20
35654;PMS1003;21773;50.010;19.972;2023-06-14T04:24:04;19.00;17.00;14.00
35654;PMS1003;21773;50.010;19.972;2023-06-14T04:27:08;18.00;16.00;14.00
35654;PMS1003;21773;50.010;19.972;2023-06-14T04:30:14;22.50;19.75;15.00
35654;PMS1003;21773;50.010;19.972;2023-06-14T04:33:23;20.00;16.00;13.00
35654;PMS1003;21773;50.010;19.972;2023-06-14T04:36:27;21.40;18.00;15.00
35654;PMS1003;21773;50.010;19.972;2023-06-14T04:39:32;19.00;18.00;13.60
35654;PMS1003;21773;50.010;19.972;2023-06-14T04:42:36;24.00;20.00;16.00
35654;PMS1003;21773;50.010;19.972;2023-06-14T04:45:43;20.60;19.00;16.00
35654;PMS1003;21773;50.010;19.972;2023-06-14T04:48:49;24.00;20.20;15.00
35654;PMS1003;21773;50.010;19.972;2023-06-14T04:51:52;20.00;18.00;14.60
35654;PMS1003;21773;50.010;19.972;2023-06-14T04:55:01;20.40;16.60;13.40
35654;PMS1003;21773;50.010;19.972;2023-06-14T04:58:04;25.60;20.60;16.80
35654;PMS1003;21773;50.010;19.972;2023-06-14T05:01:10;20.40;19.00;15.00
35654;PMS1003;21773;50.010;19.972;2023-06-14T05:04:14;19.50;17.50;14.00
35654;PMS1003;21773;50.010;19.972;2023-06-14T05:07:18;22.00;18.60;16.00
35654;PMS1003;21773;50.010;19.972;2023-06-14T05:10:24;23.00;20.40;16.00
35654;PMS1003;21773;50.010;19.972;2023-06-14T05:13:28;22.50;20.50;16.50
35654;PMS1003;21773;50.010;19.972;2023-06-14T05:16:36;18.50;17.25;13.25
35654;PMS1003;21773;50.010;19.972;2023-06-14T05:19:40;20.00;17.50;14.00
35654;PMS1003;21773;50.010;19.972;2023-06-14T05:22:44;23.00;19.40;15.40
35654;PMS1003;21773;50.010;19.972;2023-06-14T05:25:48;23.20;17.20;14.00
35654;PMS1003;21773;50.010;19.972;2023-06-14T05:28:51;23.50;19.75;15.75
35654;PMS1003;21773;50.010;19.972;2023-06-14T05:31:56;22.50;18.00;15.00
35654;PMS1003;21773;50.010;19.972;2023-06-14T05:35:00;23.00;20.00;16.00
35654;PMS1003;21773;50.010;19.972;2023-06-14T05:38:03;20.75;18.00;14.00
35654;PMS1003;21773;50.010;19.972;2023-06-14T05:41:07;21.75;18.00;15.00
35654;PMS1003;21773;50.010;19.972;2023-06-14T05:44:10;18.40;16.20;13.00
35654;PMS1003;21773;50.010;19.972;2023-06-14T05:47:15;22.00;19.00;14.00
35654;PMS1003;21773;50.010;19.972;2023-06-14T05:50:19;25.00;19.00;16.50
35654;PMS1003;21773;50.010;19.972;2023-06-14T05:53:23;22.33;19.67;16.00
35654;PMS1003;21773;50.010;19.972;2023-06-14T05:56:26;22.40;18.00;15.00
35654;PMS1003;21773;50.010;19.972;2023-06-14T05:59:29;23.20;20.00;16.00
35654;PMS1003;21773;50.010;19.972;2023-06-14T06:02:34;23.75;20.50;16.50
35654;PMS1003;21773;50.010;19.972;2023-06-14T06:05:38;22.75;20.25;14.75
35654;PMS1003;21773;50.010;19.972;2023-06-14T06:08:41;18.60;17.60;15.60
35654;PMS1003;21773;50.010;19.972;2023-06-14T06:11:45;18.40;17.40;14.80
35654;PMS1003;21773;50.010;19.972;2023-06-14T06:14:54;21.40;17.40;13.60
35654;PMS1003;21773;50.010;19.972;2023-06-14T06:17:59;18.80;17.00;14.00
35654;PMS1003;21773;50.010;19.972;2023-06-14T06:21:03;20.00;17.00;13.50
35654;PMS1003;21773;50.010;19.972;2023-06-14T06:24:07;18.20;16.20;13.00
35654;PMS1003;21773;50.010;19.972;2023-06-14T06:27:11;18.20;16.20;12.60
35654;PMS1003;21773;50.010;19.972;2023-06-14T06:30:15;20.50;18.00;15.00
35654;PMS1003;21773;50.010;19.972;2023-06-14T06:33:20;19.25;16.75;13.00
35654;PMS1003;21773;50.010;19.972;2023-06-14T06:36:24;17.20;16.00;13.40
35654;PMS1003;21773;50.010;19.972;2023-06-14T06:39:27;18.40;16.80;13.40
35654;PMS1003;21773;50.010;19.972;2023-06-14T06:42:30;17.00;16.00;13.00
35654;PMS1003;21773;50.010;19.972;2023-06-14T06:45:37;20.20;16.60;14.20
35654;PMS1003;21773;50.010;19.972;2023-06-14T06:48:41;20.00;17.00;14.25
35654;PMS1003;21773;50.010;19.972;2023-06-14T06:51:53;19.40;17.60;15.00
35654;PMS1003;21773;50.010;19.972;2023-06-14T06:55:02;19.00;18.00;15.00
35654;PMS1003;21773;50.010;19.972;2023-06-14T06:58:06;19.50;16.00;14.00
35654;PMS1003;21773;50.010;19.972;2023-06-14T07:01:09;19.60;17.00;12.00
35654;PMS1003;21773;50.010;19.972;2023-06-14T07:04:14;17.00;14.75;11.75
35654;PMS1003;21773;50.010;19.972;2023-06-14T07:07:18;19.00;17.00;13.20
35654;PMS1003;21773;50.010;19.972;2023-06-14T07:10:21;18.75;15.00;12.00
35654;PMS1003;21773;50.010;19.972;2023-06-14T07:13:26;20.60;17.00;15.00
35654;PMS1003;21773;50.010;19.972;2023-06-14T07:16:29;20.20;16.40;12.80
35654;PMS1003;21773;50.010;19.972;2023-06-14T07:19:34;20.75;17.75;14.75
35654;PMS1003;21773;50.010;19.972;2023-06-14T07:22:38;15.60;14.00;12.20
35654;PMS1003;21773;50.010;19.972;2023-06-14T07:25:42;19.00;16.40;13.00
35654;PMS1003;21773;50.010;19.972;2023-06-14T07:28:46;19.80;17.80;14.80
35654;PMS1003;21773;50.010;19.972;2023-06-14T07:31:50;18.20;15.60;12.60
35654;PMS1003;21773;50.010;19.972;2023-06-14T07:34:55;16.75;15.00;12.00
35654;PMS1003;21773;50.010;19.972;2023-06-14T07:37:58;15.50;14.50;11.00
35654;PMS1003;21773;50.010;19.972;2023-06-14T07:41:01;18.00;17.00;13.60
35654;PMS1003;21773;50.010;19.972;2023-06-14T07:44:05;16.60;15.00;12.00
35654;PMS1003;21773;50.010;19.972;2023-06-14T07:47:08;16.60;15.00;13.00
35654;PMS1003;21773;50.010;19.972;2023-06-14T07:50:13;14.67;13.33;11.00
35654;PMS1003;21773;50.010;19.972;2023-06-14T07:53:16;13.40;11.40;10.60
35654;PMS1003;21773;50.010;19.972;2023-06-14T07:56:20;15.00;13.00;11.00
35654;PMS1003;21773;50.010;19.972;2023-06-14T07:59:23;15.40;14.00;11.40
35654;PMS1003;21773;50.010;19.972;2023-06-14T08:02:27;16.80;14.00;10.80
35654;PMS1003;21773;50.010;19.972;2023-06-14T08:05:31;16.67;14.00;12.00
35654;PMS1003;21773;50.010;19.972;2023-06-14T08:08:35;14.20;12.20;9.20
35654;PMS1003;21773;50.010;19.972;2023-06-14T08:11:39;12.40;11.40;10.00
35654;PMS1003;21773;50.010;19.972;2023-06-14T08:14:42;13.00;12.00;10.00
35654;PMS1003;21773;50.010;19.972;2023-06-14T08:17:45;9.00;8.60;7.60
35654;PMS1003;21773;50.010;19.972;2023-06-14T08:20:50;6.20;6.20;5.00
35654;PMS1003;21773;50.010;19.972;2023-06-14T08:23:54;5.00;4.80;3.80
35654;PMS1003;21773;50.010;19.972;2023-06-14T08:26:57;5.00;5.00;4.00
35654;PMS1003;21773;50.010;19.972;2023-06-14T08:30:03;5.00;5.00;4.00
35654;PMS1003;21773;50.010;19.972;2023-06-14T08:33:06;6.00;5.50;4.50
35654;PMS1003;21773;50.010;19.972;2023-06-14T08:36:19;4.00;4.00;3.25
35654;PMS1003;21773;50.010;19.972;2023-06-14T08:39:24;3.40;3.40;3.00
35654;PMS1003;21773;50.010;19.972;2023-06-14T08:42:27;2.00;1.50;1.50
35654;PMS1003;21773;50.010;19.972;2023-06-14T08:45:33;2.40;2.40;2.00
35654;PMS1003;21773;50.010;19.972;2023-06-14T08:48:36;3.00;3.00;3.00
35654;PMS1003;21773;50.010;19.972;2023-06-14T08:51:43;2.00;2.00;2.00
35654;PMS1003;21773;50.010;19.972;2023-06-14T08:54:46;3.00;3.00;3.00
35654;PMS1003;21773;50.010;19.972;2023-06-14T08:57:50;3.00;2.80;2.00
35654;PMS1003;21773;50.010;19.972;2023-06-14T09:00:54;4.00;4.00;4.00
35654;PMS1003;21773;50.010;19.972;2023-06-14T09:03:58;3.00;3.00;3.00
35654;PMS1003;21773;50.010;19.972;2023-06-14T09:07:03;4.00;3.40;3.40
35654;PMS1003;21773;50.010;19.972;2023-06-14T09:10:08;3.00;3.00;3.00
35654;PMS1003;21773;50.010;19.972;2023-06-14T09:13:12;4.00;4.00;3.60
35654;PMS1003;21773;50.010;19.972;2023-06-14T09:16:16;3.00;3.00;3.00
35654;PMS1003;21773;50.010;19.972;2023-06-14T09:19:21;3.00;3.00;2.80
35654;PMS1003;21773;50.010;19.972;2023-06-14T09:22:26;3.33;3.00;3.00
35654;PMS1003;21773;50.010;19.972;2023-06-14T09:25:33;5.00;4.80;4.20
35654;PMS1003;21773;50.010;19.972;2023-06-14T09:28:46;3.20;3.20;3.00
35654;PMS1003;21773;50.010;19.972;2023-06-14T09:31:50;4.00;4.00;3.75
35654;PMS1003;21773;50.010;19.972;2023-06-14T09:34:54;4.00;4.00;4.00
35654;PMS1003;21773;50.010;19.972;2023-06-14T09:37:59;6.00;6.00;5.60
35654;PMS1003;21773;50.010;19.972;2023-06-14T09:41:03;4.00;4.00;3.40
35654;PMS1003;21773;50.010;19.972;2023-06-14T09:44:07;5.00;4.75;4.00
35654;PMS1003;21773;50.010;19.972;2023-06-14T09:47:19;6.00;6.00;5.00
35654;PMS1003;21773;50.010;19.972;2023-06-14T09:50:23;8.00;8.00;7.00
35654;PMS1003;21773;50.010;19.972;2023-06-14T09:53:29;8.60;7.60;6.60
35654;PMS1003;21773;50.010;19.972;2023-06-14T09:56:35;7.60;7.00;6.40
35654;PMS1003;21773;50.010;19.972;2023-06-14T09:59:41;7.50;6.00;5.00
35654;PMS1003;21773;50.010;19.972;2023-06-14T10:02:46;10.00;8.40;7.00
35654;PMS1003;21773;50.010;19.972;2023-06-14T10:05:58;9.00;8.00;7.00
35654;PMS1003;21773;50.010;19.972;2023-06-14T10:09:07;7.00;6.20;5.20
35654;PMS1003;21773;50.010;19.972;2023-06-14T10:12:11;9.00;8.00;8.00
35654;PMS1003;21773;50.010;19.972;2023-06-14T10:15:22;5.60;5.60;4.00
35654;PMS1003;21773;50.010;19.972;2023-06-14T10:18:33;7.00;7.00;6.00
35654;PMS1003;21773;50.010;19.972;2023-06-14T10:21:46;7.00;7.00;5.00
35654;PMS1003;21773;50.010;19.972;2023-06-14T10:25:00;6.75;6.25;5.75
35654;PMS1003;21773;50.010;19.972;2023-06-14T10:31:39;6.25;6.00;5.25
35654;PMS1003;21773;50.010;19.972;2023-06-14T10:34:43;8.00;8.00;7.00
35654;PMS1003;21773;50.010;19.972;2023-06-14T10:37:48;7.00;7.00;6.00
35654;PMS1003;21773;50.010;19.972;2023-06-14T10:40:53;6.50;6.50;6.00
35654;PMS1003;21773;50.010;19.972;2023-06-14T10:47:40;7.00;6.00;6.00
35654;PMS1003;21773;50.010;19.972;2023-06-14T10:50:44;5.80;5.80;5.20
35654;PMS1003;21773;50.010;19.972;2023-06-14T10:53:51;8.00;8.00;7.00
35654;PMS1003;21773;50.010;19.972;2023-06-14T10:56:58;8.00;7.20;7.00
35654;PMS1003;21773;50.010;19.972;2023-06-14T11:00:02;5.00;5.00;4.40
35654;PMS1003;21773;50.010;19.972;2023-06-14T11:06:50;9.00;8.00;6.67
35654;PMS1003;21773;50.010;19.972;2023-06-14T11:10:05;11.00;11.00;9.00
35654;PMS1003;21773;50.010;19.972;2023-06-14T11:13:22;9.75;9.00;8.75
35654;PMS1003;21773;50.010;19.972;2023-06-14T11:16:29;11.00;10.00;9.60
35654;PMS1003;21773;50.010;19.972;2023-06-14T11:19:35;12.50;11.00;9.75
35654;PMS1003;21773;50.010;19.972;2023-06-14T11:22:39;10.67;10.00;9.00
35654;PMS1003;21773;50.010;19.972;2023-06-14T11:25:42;9.00;8.00;6.80
35654;PMS1003;21773;50.010;19.972;2023-06-14T11:28:47;9.00;9.00;8.00
35654;PMS1003;21773;50.010;19.972;2023-06-14T11:31:50;7.80;7.80;6.20
35654;PMS1003;21773;50.010;19.972;2023-06-14T11:34:54;8.00;8.00;7.00
35654;PMS1003;21773;50.010;19.972;2023-06-14T11:37:57;8.60;8.60;7.60
35654;PMS1003;21773;50.010;19.972;2023-06-14T11:41:02;9.00;8.60;7.00
35654;PMS1003;21773;50.010;19.972;2023-06-14T11:44:07;9.67;8.67;7.67
35654;PMS1003;21773;50.010;19.972;2023-06-14T11:47:11;10.00;8.60;7.60
35654;PMS1003;21773;50.010;19.972;2023-06-14T11:50:14;8.00;8.00;7.00
35654;PMS1003;21773;50.010;19.972;2023-06-14T11:53:18;9.00;8.00;8.00
35654;PMS1003;21773;50.010;19.972;2023-06-14T11:56:21;8.00;8.00;7.00
35654;PMS1003;21773;50.010;19.972;2023-06-14T11:59:26;8.75;8.00;7.00
35654;PMS1003;21773;50.010;19.972;2023-06-14T12:02:31;10.00;9.00;8.00
35654;PMS1003;21773;50.010;19.972;2023-06-14T12:05:34;9.60;8.20;7.00
35654;PMS1003;21773;50.010;19.972;2023-06-14T12:08:37;10.00;9.75;9.00
35654;PMS1003;21773;50.010;19.972;2023-06-14T12:11:42;8.00;7.80;7.00
35654;PMS1003;21773;50.010;19.972;2023-06-14T12:14:47;9.00;8.60;8.00
35654;PMS1003;21773;50.010;19.972;2023-06-14T12:17:51;9.40;8.40;8.00
35654;PMS1003;21773;50.010;19.972;2023-06-14T12:20:58;10.00;10.00;8.00
35654;PMS1003;21773;50.010;19.972;2023-06-14T12:24:04;11.60;11.00;10.00
35654;PMS1003;21773;50.010;19.972;2023-06-14T12:27:08;12.20;11.80;10.00
35654;PMS1003;21773;50.010;19.972;2023-06-14T12:30:15;9.00;9.00;8.25
35654;PMS1003;21773;50.010;19.972;2023-06-14T12:33:18;10.00;10.00;8.00
35654;PMS1003;21773;50.010;19.972;2023-06-14T12:36:22;8.20;8.00;6.80
35654;PMS1003;21773;50.010;19.972;2023-06-14T12:39:26;11.00;10.00;10.00
35654;PMS1003;21773;50.010;19.972;2023-06-14T12:42:29;10.00;8.60;6.60
35654;PMS1003;21773;50.010;19.972;2023-06-14T12:45:34;6.00;6.00;5.00
35654;PMS1003;21773;50.010;19.972;2023-06-14T12:48:37;7.00;7.00;7.00
35654;PMS1003;21773;50.010;19.972;2023-06-14T12:51:41;5.40;5.00;4.80
35654;PMS1003;21773;50.010;19.972;2023-06-14T12:54:44;5.60;5.60;4.60
35654;PMS1003;21773;50.010;19.972;2023-06-14T12:57:48;7.00;6.00;6.00
35654;PMS1003;21773;50.010;19.972;2023-06-14T13:00:53;5.80;5.00;4.80
35654;PMS1003;21773;50.010;19.972;2023-06-14T13:03:56;8.00;8.00;7.00
35654;PMS1003;21773;50.010;19.972;2023-06-14T13:07:01;7.00;6.00;5.00
35654;PMS1003;21773;50.010;19.972;2023-06-14T13:10:04;5.40;5.40;4.40
35654;PMS1003;21773;50.010;19.972;2023-06-14T13:13:08;6.80;6.40;6.00
35654;PMS1003;21773;50.010;19.972;2023-06-14T13:16:15;6.20;6.00;5.20
35654;PMS1003;21773;50.010;19.972;2023-06-14T13:19:18;6.40;5.40;5.00
35654;PMS1003;21773;50.010;19.972;2023-06-14T13:22:22;6.00;5.00;5.00
35654;PMS1003;21773;50.010;19.972;2023-06-14T13:25:25;8.40;8.00;7.40
35654;PMS1003;21773;50.010;19.972;2023-06-14T13:28:28;10.00;8.00;7.00
35654;PMS1003;21773;50.010;19.972;2023-06-14T13:31:34;4.00;4.00;3.00
35654;PMS1003;21773;50.010;19.972;2023-06-14T13:34:38;8.80;8.40;8.00
35654;PMS1003;21773;50.010;19.972;2023-06-14T13:37:41;8.60;7.60;7.00
35654;PMS1003;21773;50.010;19.972;2023-06-14T13:40:45;8.00;8.00;7.40
35654;PMS1003;21773;50.010;19.972;2023-06-14T13:43:48;6.00;5.00;5.00
35654;PMS1003;21773;50.010;19.972;2023-06-14T13:46:53;8.00;7.00;7.00
35654;PMS1003;21773;50.010;19.972;2023-06-14T13:49:57;5.80;5.80;5.00
35654;PMS1003;21773;50.010;19.972;2023-06-14T13:53:01;7.40;7.00;6.00
35654;PMS1003;21773;50.010;19.972;2023-06-14T13:56:04;8.00;7.00;6.00
35654;PMS1003;21773;50.010;19.972;2023-06-14T13:59:08;6.00;6.00;5.00
35654;PMS1003;21773;50.010;19.972;2023-06-14T14:02:14;7.00;7.00;6.25
35654;PMS1003;21773;50.010;19.972;2023-06-14T14:05:17;5.40;5.00;5.00
35654;PMS1003;21773;50.010;19.972;2023-06-14T14:08:22;5.00;5.00;5.00
35654;PMS1003;21773;50.010;19.972;2023-06-14T14:11:26;6.75;6.75;5.25
35654;PMS1003;21773;50.010;19.972;2023-06-14T14:14:31;6.00;6.00;5.00
35654;PMS1003;21773;50.010;19.972;2023-06-14T14:17:36;7.60;7.00;7.00
35654;PMS1003;21773;50.010;19.972;2023-06-14T14:20:40;7.50;7.00;6.00
35654;PMS1003;21773;50.010;19.972;2023-06-14T14:23:43;9.00;8.60;8.00
35654;PMS1003;21773;50.010;19.972;2023-06-14T14:26:47;5.25;4.25;3.25
35654;PMS1003;21773;50.010;19.972;2023-06-14T14:29:51;6.00;5.00;5.00
35654;PMS1003;21773;50.010;19.972;2023-06-14T14:32:56;7.00;6.60;6.00
35654;PMS1003;21773;50.010;19.972;2023-06-14T14:35:59;8.00;8.00;7.00
35654;PMS1003;21773;50.010;19.972;2023-06-14T14:39:05;7.00;6.60;6.00
35654;PMS1003;21773;50.010;19.972;2023-06-14T14:42:09;7.00;7.00;6.00
35654;PMS1003;21773;50.010;19.972;2023-06-14T14:45:13;7.00;7.00;6.00
35654;PMS1003;21773;50.010;19.972;2023-06-14T14:48:17;8.00;8.00;7.00
35654;PMS1003;21773;50.010;19.972;2023-06-14T14:51:21;7.00;6.50;5.00
35654;PMS1003;21773;50.010;19.972;2023-06-14T14:54:24;8.40;7.00;6.40
35654;PMS1003;21773;50.010;19.972;2023-06-14T14:57:30;6.00;6.00;5.25
35654;PMS1003;21773;50.010;19.972;2023-06-14T15:00:34;7.00;6.00;6.00
35654;PMS1003;21773;50.010;19.972;2023-06-14T15:03:39;8.40;7.40;7.00
35654;PMS1003;21773;50.010;19.972;2023-06-14T15:07:00;5.00;5.00;4.00
35654;PMS1003;21773;50.010;19.972;2023-06-14T15:10:05;4.50;4.50;4.00
35654;PMS1003;21773;50.010;19.972;2023-06-14T15:13:09;6.00;6.00;5.00
35654;PMS1003;21773;50.010;19.972;2023-06-14T15:16:12;6.00;6.00;5.00
35654;PMS1003;21773;50.010;19.972;2023-06-14T15:19:17;7.20;7.20;6.80
35654;PMS1003;21773;50.010;19.972;2023-06-14T15:22:21;6.00;5.00;4.20
35654;PMS1003;21773;50.010;19.972;2023-06-14T15:25:25;8.00;7.00;6.00
35654;PMS1003;21773;50.010;19.972;2023-06-14T15:28:28;7.40;7.40;7.00
35654;PMS1003;21773;50.010;19.972;2023-06-14T15:31:34;7.25;7.25;7.00
35654;PMS1003;21773;50.010;19.972;2023-06-14T15:34:39;7.00;7.00;6.20
35654;PMS1003;21773;50.010;19.972;2023-06-14T15:37:42;8.40;7.00;6.00
35654;PMS1003;21773;50.010;19.972;2023-06-14T15:40:46;6.00;6.00;5.80
35654;PMS1003;21773;50.010;19.972;2023-06-14T15:43:52;8.00;7.00;6.00
35654;PMS1003;21773;50.010;19.972;2023-06-14T15:46:55;6.00;6.00;5.00
35654;PMS1003;21773;50.010;19.972;2023-06-14T15:50:00;6.50;6.50;6.00
35654;PMS1003;21773;50.010;19.972;2023-06-14T15:53:06;6.00;6.00;5.50
35654;PMS1003;21773;50.010;19.972;2023-06-14T15:56:09;7.00;5.00;4.25
35654;PMS1003;21773;50.010;19.972;2023-06-14T15:59:13;5.75;5.75;5.00
35654;PMS1003;21773;50.010;19.972;2023-06-14T16:02:17;6.40;5.60;5.00
35654;PMS1003;21773;50.010;19.972;2023-06-14T16:05:22;8.00;7.00;6.40
35654;PMS1003;21773;50.010;19.972;2023-06-14T16:08:25;4.00;4.00;3.50
35654;PMS1003;21773;50.010;19.972;2023-06-14T16:11:42;4.80;4.00;3.20
35654;PMS1003;21773;50.010;19.972;2023-06-14T16:14:45;6.00;5.00;4.00
35654;PMS1003;21773;50.010;19.972;2023-06-14T16:17:48;6.00;5.50;5.00
35654;PMS1003;21773;50.010;19.972;2023-06-14T16:20:53;6.00;6.00;6.00
35654;PMS1003;21773;50.010;19.972;2023-06-14T16:23:58;5.80;5.80;5.00
35654;PMS1003;21773;50.010;19.972;2023-06-14T16:27:01;7.00;7.00;6.60
35654;PMS1003;21773;50.010;19.972;2023-06-14T16:30:06;7.20;7.00;6.80
35654;PMS1003;21773;50.010;19.972;2023-06-14T16:33:10;6.00;6.00;5.00
35654;PMS1003;21773;50.010;19.972;2023-06-14T16:36:15;8.00;6.60;6.00
35654;PMS1003;21773;50.010;19.972;2023-06-14T16:39:18;7.00;6.00;5.75
35654;PMS1003;21773;50.010;19.972;2023-06-14T16:42:22;6.00;5.20;4.20
35654;PMS1003;21773;50.010;19.972;2023-06-14T16:45:26;4.25;4.25;4.00
35654;PMS1003;21773;50.010;19.972;2023-06-14T16:48:29;4.00;4.00;3.00
35654;PMS1003;21773;50.010;19.972;2023-06-14T16:51:34;4.60;4.00;4.00
35654;PMS1003;21773;50.010;19.972;2023-06-14T16:54:37;4.00;4.00;4.00
35654;PMS1003;21773;50.010;19.972;2023-06-14T16:57:40;4.50;4.50;4.50
35654;PMS1003;21773;50.010;19.972;2023-06-14T17:00:44;3.50;3.50;3.00
35654;PMS1003;21773;50.010;19.972;2023-06-14T17:03:47;3.80;2.20;2.00
35654;PMS1003;21773;50.010;19.972;2023-06-14T17:06:53;5.00;4.00;4.00
35654;PMS1003;21773;50.010;19.972;2023-06-14T17:09:57;5.00;5.00;4.40
35654;PMS1003;21773;50.010;19.972;2023-06-14T17:13:00;4.00;4.00;4.00
35654;PMS1003;21773;50.010;19.972;2023-06-14T17:16:04;5.80;4.80;4.00
35654;PMS1003;21773;50.010;19.972;2023-06-14T17:19:08;7.00;7.00;6.00
35654;PMS1003;21773;50.010;19.972;2023-06-14T17:22:13;4.80;4.80;4.80
35654;PMS1003;21773;50.010;19.972;2023-06-14T17:25:16;5.00;5.00;5.00
35654;PMS1003;21773;50.010;19.972;2023-06-14T17:28:21;6.00;5.40;5.00
35654;PMS1003;21773;50.010;19.972;2023-06-14T17:31:24;4.40;4.40;4.40
35654;PMS1003;21773;50.010;19.972;2023-06-14T17:34:29;4.00;4.00;4.00